Time;durP1;ratioP1;P1;durP2;ratioP2;P2;SDS_P1;SDS_P2;PMS_P1;PMS_P2;Temp;Humidity;BMP_temperature;BMP_pressure;BME280_temperature;BME280_humidity;BME280_pressure;Samples;Min_cycle;Max_cycle;Signal;HPM_P1;HPM_P2
2021/11/21 00:00:31;;;;;;;12.30;9.57;;;7.50;92.80;;;;;;5027631;28;20125;-60
2021/11/21 00:02:57;;;;;;;14.23;10.40;;;7.50;92.80;;;;;;5024821;28;20119;-60
2021/11/21 00:05:23;;;;;;;12.15;10.30;;;7.50;92.90;;;;;;5047031;28;20502;-61
2021/11/21 00:07:48;;;;;;;11.20;9.85;;;7.50;92.90;;;;;;5064489;28;20025;-60
2021/11/21 00:10:14;;;;;;;12.77;10.13;;;7.50;92.90;;;;;;5046781;28;20033;-61
2021/11/21 00:12:39;;;;;;;12.30;9.70;;;7.50;92.90;;;;;;5046457;28;20021;-60
2021/11/21 00:15:05;;;;;;;11.43;9.32;;;7.50;92.90;;;;;;5045164;28;20111;-60
2021/11/21 00:17:31;;;;;;;12.38;10.05;;;7.50;93.00;;;;;;5014667;28;20037;-61
2021/11/21 00:19:57;;;;;;;12.25;10.30;;;7.50;93.00;;;;;;5065333;28;20506;-60
2021/11/21 00:22:24;;;;;;;11.55;10.25;;;7.40;93.00;;;;;;5046057;28;20770;-61
2021/11/21 00:24:50;;;;;;;11.93;9.75;;;7.50;93.00;;;;;;5044944;28;20020;-60
2021/11/21 00:27:15;;;;;;;10.98;9.50;;;7.50;93.00;;;;;;5029667;28;20055;-60
2021/11/21 00:29:41;;;;;;;12.27;10.07;;;7.40;93.00;;;;;;5030019;28;20049;-60
2021/11/21 00:32:06;;;;;;;12.73;10.18;;;7.50;93.00;;;;;;5047462;28;20067;-60
2021/11/21 00:34:32;;;;;;;12.25;9.82;;;7.50;93.00;;;;;;5029622;28;20415;-60
2021/11/21 00:36:57;;;;;;;13.32;10.38;;;7.50;93.00;;;;;;5064377;28;20033;-60
2021/11/21 00:39:23;;;;;;;11.60;9.95;;;7.50;93.00;;;;;;5045904;28;20055;-61
2021/11/21 00:41:49;;;;;;;11.82;10.30;;;7.50;93.10;;;;;;5045469;28;20037;-61
2021/11/21 00:44:14;;;;;;;13.57;10.60;;;7.40;93.00;;;;;;5046156;28;20063;-60
2021/11/21 00:46:40;;;;;;;12.07;9.88;;;7.40;93.00;;;;;;5046275;28;20433;-61
2021/11/21 00:49:12;;;;;;;13.32;10.15;;;7.40;93.10;;;;;;5045568;28;20352;-60
2021/11/21 00:51:37;;;;;;;12.43;10.10;;;7.40;93.00;;;;;;5028646;28;20021;-61
2021/11/21 00:54:08;;;;;;;12.55;10.55;;;7.40;93.00;;;;;;5042614;28;20040;-61
2021/11/21 00:56:34;;;;;;;12.40;9.98;;;7.40;93.00;;;;;;5065416;28;20029;-61
2021/11/21 00:58:59;;;;;;;12.73;10.63;;;7.40;93.10;;;;;;5046969;28;20032;-60
2021/11/21 01:01:25;;;;;;;12.63;9.73;;;7.40;93.10;;;;;;5062625;28;20025;-60
2021/11/21 01:03:52;;;;;;;11.27;10.07;;;7.40;93.10;;;;;;5028357;28;20056;-60
2021/11/21 01:06:17;;;;;;;13.15;10.73;;;7.40;93.20;;;;;;5045668;28;20353;-60
2021/11/21 01:08:43;;;;;;;13.95;10.48;;;7.40;93.20;;;;;;5063885;28;20225;-61
2021/11/21 01:11:08;;;;;;;12.38;10.90;;;7.40;93.20;;;;;;5047615;28;20051;-61
2021/11/21 01:13:35;;;;;;;12.18;9.73;;;7.40;93.20;;;;;;5044787;28;20039;-60
2021/11/21 01:16:01;;;;;;;11.25;10.07;;;7.40;93.20;;;;;;5063483;28;20024;-61
2021/11/21 01:18:27;;;;;;;11.73;10.07;;;7.40;93.10;;;;;;5028794;28;20558;-61
2021/11/21 01:20:53;;;;;;;12.73;10.55;;;7.40;93.20;;;;;;5043729;28;20036;-61
2021/11/21 01:23:18;;;;;;;11.50;9.48;;;7.40;93.10;;;;;;5063484;28;20062;-62
2021/11/21 01:25:44;;;;;;;11.77;9.88;;;7.40;93.20;;;;;;5028347;28;20146;-60
2021/11/21 01:28:10;;;;;;;12.02;9.43;;;7.40;93.10;;;;;;5044345;28;20036;-61
2021/11/21 01:30:36;;;;;;;13.57;10.93;;;7.40;93.10;;;;;;5043998;28;20074;-60
2021/11/21 01:33:01;;;;;;;13.52;10.32;;;7.40;93.10;;;;;;5024394;28;21107;-60
2021/11/21 01:35:27;;;;;;;11.40;9.70;;;7.40;93.10;;;;;;5043494;28;20233;-61
2021/11/21 01:37:52;;;;;;;12.27;9.65;;;7.40;93.10;;;;;;5046210;28;20040;-61
2021/11/21 01:40:18;;;;;;;11.48;9.57;;;7.40;93.40;;;;;;5027520;28;20111;-60
2021/11/21 01:42:44;;;;;;;11.93;9.95;;;7.40;93.20;;;;;;5062197;28;20032;-61
2021/11/21 01:45:10;;;;;;;12.40;9.82;;;7.40;93.20;;;;;;5061945;28;20063;-61
2021/11/21 01:47:39;;;;;;;13.10;10.25;;;7.40;93.20;;;;;;5026442;28;20044;-61
2021/11/21 01:50:10;;;;;;;11.68;9.60;;;7.40;93.20;;;;;;5029777;28;20028;-60
2021/11/21 01:52:35;;;;;;;12.07;10.60;;;7.40;93.30;;;;;;5060804;28;20078;-60
2021/11/21 01:55:02;;;;;;;13.48;9.95;;;7.30;93.30;;;;;;5043980;28;20025;-61
2021/11/21 01:57:27;;;;;;;12.20;9.57;;;7.40;93.40;;;;;;5044544;28;20031;-60
2021/11/21 01:59:57;;;;;;;12.45;9.85;;;7.40;93.40;;;;;;5044149;28;20410;-61
2021/11/21 02:02:22;;;;;;;11.68;8.63;;;7.30;93.50;;;;;;5061270;28;21508;-60
2021/11/21 02:04:48;;;;;;;12.82;9.70;;;7.30;93.40;;;;;;5064205;28;20052;-61
2021/11/21 02:07:13;;;;;;;11.63;9.50;;;7.40;93.50;;;;;;5044236;28;20032;-61
2021/11/21 02:09:39;;;;;;;68.75;12.43;;;7.30;93.50;;;;;;5028327;28;20033;-60
2021/11/21 02:12:05;;;;;;;49.33;13.90;;;7.40;93.50;;;;;;5043838;28;20032;-60
2021/11/21 02:14:30;;;;;;;34.17;11.40;;;7.40;93.50;;;;;;5044274;28;20427;-61
2021/11/21 02:16:56;;;;;;;49.67;13.00;;;7.40;93.60;;;;;;5044733;28;20028;-60
2021/11/21 02:19:22;;;;;;;43.80;12.40;;;7.40;93.60;;;;;;5026653;28;20305;-61
2021/11/21 02:21:47;;;;;;;30.77;12.40;;;7.40;93.60;;;;;;5061426;28;20048;-61
2021/11/21 02:24:13;;;;;;;28.92;12.05;;;7.40;93.60;;;;;;5061219;28;20029;-61
2021/11/21 02:26:39;;;;;;;26.77;10.60;;;7.40;93.60;;;;;;5044809;28;20036;-62
2021/11/21 02:29:04;;;;;;;28.65;10.80;;;7.40;93.60;;;;;;5045816;28;20432;-61
2021/11/21 02:31:30;;;;;;;17.60;10.98;;;7.30;93.60;;;;;;5044391;28;20336;-61
2021/11/21 02:33:56;;;;;;;20.40;10.95;;;7.40;93.60;;;;;;5043709;28;20049;-60
2021/11/21 02:36:22;;;;;;;22.33;11.93;;;7.40;93.70;;;;;;5025986;28;20035;-61
2021/11/21 02:38:48;;;;;;;21.73;11.88;;;7.40;93.70;;;;;;5062235;28;20056;-60
2021/11/21 02:41:14;;;;;;;26.95;12.43;;;7.30;93.80;;;;;;5028333;28;20200;-63
2021/11/21 02:43:41;;;;;;;17.38;11.13;;;7.40;94.00;;;;;;5028687;28;20029;-61
2021/11/21 02:46:06;;;;;;;19.08;11.20;;;7.40;94.00;;;;;;5012984;28;20104;-61
2021/11/21 02:48:33;;;;;;;26.50;12.15;;;7.40;94.00;;;;;;5028876;28;20490;-60
2021/11/21 02:50:58;;;;;;;19.33;11.05;;;7.30;94.00;;;;;;5064202;28;20090;-61
2021/11/21 02:53:27;;;;;;;14.20;10.85;;;7.40;93.90;;;;;;5066447;28;20463;-60
2021/11/21 02:55:53;;;;;;;19.92;11.05;;;7.40;93.90;;;;;;5065871;28;20118;-61
2021/11/21 02:58:19;;;;;;;18.55;10.48;;;7.30;93.90;;;;;;5047489;28;20032;-60
2021/11/21 03:00:45;;;;;;;15.35;10.35;;;7.40;93.80;;;;;;5047663;28;20392;-60
2021/11/21 03:03:12;;;;;;;14.05;10.05;;;7.40;93.80;;;;;;5029557;28;20529;-61
2021/11/21 03:05:38;;;;;;;16.63;11.00;;;7.30;93.80;;;;;;5047529;28;20037;-61
2021/11/21 03:08:04;;;;;;;19.92;10.88;;;7.30;93.80;;;;;;5067210;28;20048;-61
2021/11/21 03:10:29;;;;;;;16.85;11.35;;;7.40;93.80;;;;;;5067215;28;20012;-60
2021/11/21 03:12:56;;;;;;;45.53;12.88;;;7.30;93.80;;;;;;5047274;28;20021;-60
2021/11/21 03:15:22;;;;;;;71.18;15.00;;;7.30;93.70;;;;;;5047163;28;20047;-61
2021/11/21 03:17:48;;;;;;;139.75;20.48;;;7.30;93.90;;;;;;5065732;28;20029;-61
2021/11/21 03:20:14;;;;;;;88.18;15.88;;;7.30;93.70;;;;;;5015235;28;20028;-60
2021/11/21 03:22:40;;;;;;;67.65;14.23;;;7.30;93.70;;;;;;5032519;28;20491;-60
2021/11/21 03:25:06;;;;;;;104.82;17.42;;;7.30;93.70;;;;;;5046492;28;20025;-61
2021/11/21 03:27:31;;;;;;;97.38;15.55;;;7.30;93.60;;;;;;5047574;28;20514;-60
2021/11/21 03:29:57;;;;;;;78.53;16.08;;;7.40;93.60;;;;;;5028427;28;20021;-60
2021/11/21 03:32:22;;;;;;;83.85;14.20;;;7.30;93.60;;;;;;5065741;28;20215;-61
2021/11/21 03:34:48;;;;;;;72.18;14.35;;;7.30;93.60;;;;;;5048054;28;20028;-61
2021/11/21 03:37:14;;;;;;;66.18;13.90;;;7.30;93.60;;;;;;5044088;28;20480;-60
2021/11/21 03:39:39;;;;;;;165.75;20.88;;;7.30;93.70;;;;;;5029587;28;20029;-60
2021/11/21 03:42:05;;;;;;;102.28;18.02;;;7.30;93.70;;;;;;5030019;28;20120;-61
2021/11/21 03:44:31;;;;;;;102.00;15.18;;;7.30;93.70;;;;;;5028950;28;20095;-61
2021/11/21 03:46:56;;;;;;;96.78;15.95;;;7.30;93.60;;;;;;5046987;28;20104;-61
2021/11/21 03:49:22;;;;;;;101.35;16.42;;;7.30;93.60;;;;;;5064130;28;20024;-60
2021/11/21 03:51:47;;;;;;;62.22;15.35;;;7.30;93.60;;;;;;5030412;28;20016;-60
2021/11/21 03:54:13;;;;;;;48.22;13.93;;;7.30;93.60;;;;;;5064166;28;20126;-60
2021/11/21 03:56:39;;;;;;;55.90;12.88;;;7.30;93.50;;;;;;5059758;28;20062;-60
2021/11/21 03:59:05;;;;;;;63.47;13.38;;;7.30;93.50;;;;;;5044997;28;20035;-61
2021/11/21 04:01:32;;;;;;;49.65;12.15;;;7.30;93.50;;;;;;5028924;28;20391;-60
2021/11/21 04:03:57;;;;;;;48.28;12.00;;;7.40;93.50;;;;;;5058732;28;20524;-61
2021/11/21 04:06:23;;;;;;;43.05;12.90;;;7.30;93.50;;;;;;5026496;28;20025;-60
2021/11/21 04:08:49;;;;;;;44.63;11.88;;;7.30;93.50;;;;;;5027238;28;20326;-61
2021/11/21 04:11:14;;;;;;;33.78;11.82;;;7.30;93.60;;;;;;5042523;28;20035;-61
2021/11/21 04:13:40;;;;;;;44.17;12.18;;;7.30;93.50;;;;;;5045079;28;20147;-60
2021/11/21 04:16:05;;;;;;;28.65;10.70;;;7.30;93.50;;;;;;5044347;28;20089;-60
2021/11/21 04:18:32;;;;;;;36.20;11.57;;;7.30;93.50;;;;;;5028396;28;20029;-61
2021/11/21 04:20:58;;;;;;;32.28;11.10;;;7.30;93.50;;;;;;5060699;28;20036;-60
2021/11/21 04:23:28;;;;;;;40.60;10.98;;;7.30;93.50;;;;;;5044062;28;21413;-61
2021/11/21 04:25:54;;;;;;;23.02;10.75;;;7.30;93.50;;;;;;5062325;28;20041;-61
2021/11/21 04:28:20;;;;;;;15.85;10.27;;;7.30;93.50;;;;;;5061955;28;20039;-61
2021/11/21 04:30:45;;;;;;;28.48;10.10;;;7.30;93.50;;;;;;5026233;28;20020;-60
2021/11/21 04:33:11;;;;;;;21.35;10.23;;;7.30;93.50;;;;;;5043782;28;20252;-61
2021/11/21 04:35:37;;;;;;;18.45;9.55;;;7.30;93.50;;;;;;5040042;28;20029;-61
2021/11/21 04:38:02;;;;;;;23.25;10.40;;;7.30;93.50;;;;;;5044075;28;20384;-61
2021/11/21 04:40:28;;;;;;;30.20;10.45;;;7.30;93.50;;;;;;5028309;28;20044;-63
2021/11/21 04:42:53;;;;;;;23.67;9.95;;;7.30;93.50;;;;;;5043015;28;20494;-60
2021/11/21 04:45:19;;;;;;;22.70;11.55;;;7.30;93.50;;;;;;5043367;28;20074;-61
2021/11/21 04:47:45;;;;;;;33.05;11.02;;;7.30;93.50;;;;;;5044041;28;20048;-61
2021/11/21 04:50:11;;;;;;;21.23;10.82;;;7.30;93.50;;;;;;5026330;28;20052;-60
2021/11/21 04:52:36;;;;;;;21.83;9.75;;;7.30;93.50;;;;;;5065150;28;20480;-61
2021/11/21 04:55:02;;;;;;;18.00;8.95;;;7.30;93.50;;;;;;5045507;28;20101;-61
2021/11/21 04:57:28;;;;;;;23.50;10.05;;;7.30;93.50;;;;;;5045603;28;20020;-60
2021/11/21 04:59:54;;;;;;;16.70;9.13;;;7.30;93.50;;;;;;5063092;28;20137;-61
2021/11/21 05:02:19;;;;;;;18.15;8.18;;;7.20;93.50;;;;;;5063040;28;20041;-60
2021/11/21 05:04:45;;;;;;;22.10;8.88;;;7.20;93.80;;;;;;5063804;28;20044;-61
2021/11/21 05:07:10;;;;;;;15.68;8.60;;;7.20;93.50;;;;;;5063565;28;20039;-64
2021/11/21 05:09:36;;;;;;;18.40;8.35;;;7.20;93.50;;;;;;5044671;28;20051;-60
2021/11/21 05:12:01;;;;;;;20.20;8.55;;;7.10;93.60;;;;;;5062599;28;20102;-60
2021/11/21 05:14:27;;;;;;;15.65;8.57;;;7.10;93.50;;;;;;5062171;28;20047;-60
2021/11/21 05:16:52;;;;;;;14.00;7.47;;;7.10;93.50;;;;;;5045610;28;20112;-61
2021/11/21 05:19:18;;;;;;;12.30;7.82;;;7.10;93.50;;;;;;5046509;28;20062;-61
2021/11/21 05:21:44;;;;;;;19.02;7.75;;;7.20;93.50;;;;;;5063861;28;20107;-60
2021/11/21 05:24:10;;;;;;;13.75;9.40;;;7.20;93.50;;;;;;5061290;28;20032;-61
2021/11/21 05:26:35;;;;;;;14.27;8.27;;;7.20;93.50;;;;;;5045181;28;20071;-60
2021/11/21 05:29:01;;;;;;;16.67;8.52;;;7.20;93.30;;;;;;5044695;28;20044;-61
2021/11/21 05:31:26;;;;;;;13.82;8.02;;;7.20;93.30;;;;;;5046564;28;20094;-60
2021/11/21 05:33:52;;;;;;;18.70;8.68;;;7.20;93.40;;;;;;5045009;28;20037;-60
2021/11/21 05:36:18;;;;;;;12.90;7.90;;;7.20;93.30;;;;;;5027781;28;20039;-61
2021/11/21 05:38:43;;;;;;;9.98;7.40;;;7.20;93.30;;;;;;5045584;28;20087;-60
2021/11/21 05:41:09;;;;;;;15.77;7.72;;;7.20;93.30;;;;;;5043741;28;20064;-61
2021/11/21 05:43:34;;;;;;;9.70;7.28;;;7.20;93.30;;;;;;5045984;28;20040;-60
2021/11/21 05:46:00;;;;;;;15.50;7.68;;;7.20;93.30;;;;;;5046161;28;20450;-62
2021/11/21 05:48:25;;;;;;;10.57;7.88;;;7.20;93.30;;;;;;5043121;28;20440;-61
2021/11/21 05:50:51;;;;;;;12.65;8.00;;;7.20;93.30;;;;;;5011510;28;20326;-60
2021/11/21 05:53:16;;;;;;;15.65;8.65;;;7.20;93.30;;;;;;5026056;28;20110;-60
2021/11/21 05:55:42;;;;;;;13.07;8.45;;;7.20;93.30;;;;;;5026121;28;20329;-60
2021/11/21 05:58:08;;;;;;;12.50;8.77;;;7.20;93.40;;;;;;5028938;28;20056;-61
2021/11/21 06:00:33;;;;;;;11.75;9.13;;;7.20;93.40;;;;;;5027194;28;20103;-61
2021/11/21 06:02:59;;;;;;;15.55;9.82;;;7.10;93.40;;;;;;5026842;28;20398;-60
2021/11/21 06:05:25;;;;;;;16.38;8.60;;;7.20;93.50;;;;;;5043849;28;20028;-60
2021/11/21 06:07:50;;;;;;;11.98;9.30;;;7.20;93.50;;;;;;5042693;28;20044;-60
2021/11/21 06:10:16;;;;;;;13.82;9.38;;;7.10;93.50;;;;;;5062000;28;20082;-60
2021/11/21 06:12:42;;;;;;;19.15;10.52;;;7.10;93.50;;;;;;5063893;28;20077;-60
2021/11/21 06:15:08;;;;;;;15.57;10.52;;;7.20;93.50;;;;;;5011056;28;20559;-61
2021/11/21 06:17:34;;;;;;;13.82;10.20;;;7.10;93.50;;;;;;5014449;28;20662;-60
2021/11/21 06:19:59;;;;;;;18.35;10.73;;;7.10;93.50;;;;;;5043193;28;20017;-61
2021/11/21 06:22:25;;;;;;;14.32;9.80;;;7.10;93.50;;;;;;5045437;28;20024;-61
2021/11/21 06:24:50;;;;;;;16.90;10.20;;;7.10;93.50;;;;;;5045525;28;20040;-61
2021/11/21 06:27:16;;;;;;;17.15;10.82;;;7.10;93.50;;;;;;5044875;28;20457;-60
2021/11/21 06:29:42;;;;;;;15.15;11.50;;;7.10;93.40;;;;;;5042299;28;20480;-61
2021/11/21 06:32:07;;;;;;;17.10;10.13;;;7.10;93.50;;;;;;5061445;28;20902;-60
2021/11/21 06:34:33;;;;;;;18.20;11.88;;;7.10;93.40;;;;;;5026996;28;20531;-61
2021/11/21 06:36:58;;;;;;;14.65;11.98;;;7.10;93.40;;;;;;5044383;28;20762;-60
2021/11/21 06:39:24;;;;;;;19.13;11.02;;;7.10;93.40;;;;;;5026434;28;20420;-60
2021/11/21 06:41:49;;;;;;;16.92;10.63;;;7.10;93.40;;;;;;5043921;28;20035;-61
2021/11/21 06:44:15;;;;;;;18.45;13.05;;;7.10;93.70;;;;;;5043918;28;20133;-61
2021/11/21 06:46:40;;;;;;;20.75;12.35;;;7.00;93.40;;;;;;5043763;28;20048;-60
2021/11/21 06:49:06;;;;;;;25.05;13.90;;;7.00;93.40;;;;;;5028054;28;20067;-61
2021/11/21 06:51:32;;;;;;;25.25;13.68;;;7.10;93.40;;;;;;5028654;28;20142;-59
2021/11/21 06:53:58;;;;;;;23.45;13.00;;;7.00;93.30;;;;;;5044723;28;20542;-60
2021/11/21 06:56:24;;;;;;;20.85;13.45;;;7.10;93.30;;;;;;5042489;28;20381;-61
2021/11/21 06:58:49;;;;;;;18.75;12.73;;;7.10;93.30;;;;;;5026427;28;20017;-61
2021/11/21 07:01:15;;;;;;;23.20;13.10;;;7.00;93.30;;;;;;5041107;28;20044;-60
2021/11/21 07:03:41;;;;;;;20.95;14.13;;;7.00;93.30;;;;;;5044930;28;20181;-61
2021/11/21 07:06:06;;;;;;;29.98;13.00;;;7.00;93.30;;;;;;5027191;28;20112;-60
2021/11/21 07:08:32;;;;;;;18.33;12.70;;;7.00;93.30;;;;;;5062009;28;20029;-61
2021/11/21 07:10:57;;;;;;;19.63;12.95;;;7.00;93.30;;;;;;5010399;28;20037;-60
2021/11/21 07:13:23;;;;;;;16.58;11.93;;;7.00;93.30;;;;;;5042727;28;20071;-61
2021/11/21 07:15:49;;;;;;;16.55;11.55;;;7.00;93.30;;;;;;5044651;28;20036;-61
2021/11/21 07:18:14;;;;;;;16.38;12.27;;;7.00;93.30;;;;;;5044280;28;20071;-60
2021/11/21 07:20:40;;;;;;;15.52;11.50;;;7.00;93.30;;;;;;5010424;28;20032;-60
2021/11/21 07:23:05;;;;;;;23.45;11.68;;;7.00;93.20;;;;;;5044642;28;20040;-61
2021/11/21 07:25:31;;;;;;;15.10;10.52;;;7.00;93.20;;;;;;5059656;28;20580;-61
2021/11/21 07:27:56;;;;;;;21.38;11.30;;;7.00;93.20;;;;;;5028323;28;20499;-61
2021/11/21 07:30:22;;;;;;;19.83;11.93;;;7.00;93.20;;;;;;5028651;28;20021;-61
2021/11/21 07:32:48;;;;;;;16.17;11.15;;;7.00;93.10;;;;;;5028595;28;20020;-60
2021/11/21 07:35:15;;;;;;;15.32;10.10;;;7.00;93.20;;;;;;5046215;28;20036;-60
2021/11/21 07:37:41;;;;;;;16.05;11.10;;;7.00;93.20;;;;;;5046955;28;20052;-60
2021/11/21 07:40:10;;;;;;;19.70;10.63;;;7.00;93.20;;;;;;5029737;28;20032;-60
2021/11/21 07:42:35;;;;;;;17.85;11.02;;;7.00;93.20;;;;;;5032876;28;20485;-60
2021/11/21 07:45:01;;;;;;;15.70;10.32;;;7.00;93.20;;;;;;5030883;28;20033;-60
2021/11/21 07:47:27;;;;;;;18.40;11.98;;;7.00;93.20;;;;;;5062882;28;20544;-60
2021/11/21 07:49:53;;;;;;;13.93;10.27;;;7.00;93.20;;;;;;5011308;28;20046;-60
2021/11/21 07:52:19;;;;;;;18.45;11.73;;;7.00;93.20;;;;;;5064645;28;20043;-60
2021/11/21 07:54:45;;;;;;;17.20;9.93;;;7.00;93.20;;;;;;5015737;28;20039;-61
2021/11/21 07:57:11;;;;;;;23.02;10.90;;;7.00;93.20;;;;;;5048445;28;20083;-65
2021/11/21 07:59:36;;;;;;;17.83;11.40;;;7.00;93.10;;;;;;5045914;28;20112;-61
2021/11/21 08:02:02;;;;;;;16.85;10.65;;;7.00;93.10;;;;;;5046290;28;20028;-62
2021/11/21 08:04:27;;;;;;;17.13;10.45;;;7.00;93.10;;;;;;5064096;28;20040;-61
2021/11/21 08:06:53;;;;;;;18.00;10.98;;;7.00;93.10;;;;;;5031258;28;20395;-60
2021/11/21 08:09:19;;;;;;;14.45;10.45;;;7.00;93.00;;;;;;5047915;28;20852;-61
2021/11/21 08:11:44;;;;;;;18.52;11.18;;;7.00;93.00;;;;;;5030777;28;20119;-60
2021/11/21 08:14:10;;;;;;;15.15;10.68;;;7.00;93.00;;;;;;5064492;28;20055;-61
2021/11/21 08:16:35;;;;;;;19.48;11.48;;;6.90;92.90;;;;;;5046285;28;20055;-60
2021/11/21 08:19:01;;;;;;;15.70;10.05;;;7.00;93.00;;;;;;5029041;28;20540;-61
2021/11/21 08:21:26;;;;;;;13.07;10.23;;;7.00;92.90;;;;;;5065160;28;20053;-61
2021/11/21 08:23:52;;;;;;;17.08;10.13;;;7.00;92.90;;;;;;5045147;28;20033;-61
2021/11/21 08:26:17;;;;;;;13.13;9.32;;;7.00;92.90;;;;;;5046448;28;20021;-60
2021/11/21 08:28:43;;;;;;;13.88;10.40;;;6.80;92.80;;;;;;5045255;28;20079;-62
2021/11/21 08:31:08;;;;;;;15.88;9.43;;;7.00;92.90;;;;;;5045753;28;20749;-61
2021/11/21 08:33:34;;;;;;;19.83;9.55;;;7.00;92.90;;;;;;5042352;28;20041;-61
2021/11/21 08:36:00;;;;;;;14.88;9.27;;;7.00;92.90;;;;;;5044037;28;20035;-61
2021/11/21 08:38:26;;;;;;;13.07;9.05;;;7.00;92.90;;;;;;5044635;28;20075;-61
2021/11/21 08:40:52;;;;;;;10.40;8.27;;;7.00;92.90;;;;;;5024156;28;20872;-61
2021/11/21 08:43:17;;;;;;;14.82;9.27;;;7.00;92.90;;;;;;5062087;28;20112;-60
2021/11/21 08:45:43;;;;;;;11.10;8.05;;;7.00;92.90;;;;;;5028785;28;20029;-60
2021/11/21 08:48:08;;;;;;;11.68;8.95;;;7.00;92.90;;;;;;5062860;28;20383;-61
2021/11/21 08:50:34;;;;;;;10.95;8.50;;;7.00;92.90;;;;;;5046158;28;20028;-60
2021/11/21 08:52:59;;;;;;;15.30;8.93;;;7.00;92.90;;;;;;5012917;28;20060;-61
2021/11/21 08:55:25;;;;;;;11.70;9.20;;;7.00;92.90;;;;;;5045292;28;20017;-60
2021/11/21 08:57:51;;;;;;;11.13;8.80;;;7.00;92.90;;;;;;5062131;28;20059;-61
2021/11/21 09:00:16;;;;;;;9.68;8.15;;;7.00;92.90;;;;;;5030334;28;20447;-60
2021/11/21 09:02:42;;;;;;;10.57;8.32;;;7.10;92.90;;;;;;5045287;28;20674;-61
2021/11/21 09:05:09;;;;;;;12.07;8.10;;;7.00;92.90;;;;;;5009571;28;20036;-60
2021/11/21 09:07:35;;;;;;;12.05;8.40;;;7.00;92.80;;;;;;5040416;28;20051;-61
2021/11/21 09:10:01;;;;;;;9.60;8.18;;;7.10;92.80;;;;;;5042271;28;20071;-60
2021/11/21 09:12:26;;;;;;;11.23;8.15;;;7.10;92.80;;;;;;5042009;28;20104;-60
2021/11/21 09:14:53;;;;;;;14.32;8.63;;;7.10;92.80;;;;;;5037824;28;20035;-61
2021/11/21 09:17:19;;;;;;;24.70;9.63;;;7.10;92.80;;;;;;5055226;28;20047;-61
2021/11/21 09:19:44;;;;;;;20.63;8.63;;;7.10;92.90;;;;;;5055475;28;20024;-60
2021/11/21 09:22:10;;;;;;;24.23;9.50;;;7.20;93.00;;;;;;5021201;28;20024;-60
2021/11/21 09:24:35;;;;;;;19.38;8.50;;;7.20;93.00;;;;;;5006891;28;20348;-60
2021/11/21 09:27:01;;;;;;;17.77;8.10;;;7.20;93.00;;;;;;5021699;28;20025;-60
2021/11/21 09:29:26;;;;;;;18.33;8.80;;;7.20;93.00;;;;;;5021068;28;20059;-60
2021/11/21 09:31:52;;;;;;;28.10;8.10;;;7.20;92.90;;;;;;5055778;28;20568;-60
2021/11/21 09:34:17;;;;;;;32.83;9.50;;;7.20;92.90;;;;;;5018688;28;20714;-60
2021/11/21 09:36:45;;;;;;;24.27;10.48;;;7.30;93.00;;;;;;5045161;28;20036;-60
2021/11/21 09:39:10;;;;;;;39.20;11.02;;;7.30;93.20;;;;;;5039439;28;20059;-60
2021/11/21 09:41:36;;;;;;;36.92;11.23;;;7.30;93.20;;;;;;5038256;28;20095;-60
2021/11/21 09:44:01;;;;;;;44.55;11.43;;;7.40;93.20;;;;;;5035582;28;20031;-60
2021/11/21 09:46:27;;;;;;;43.55;11.88;;;7.40;93.30;;;;;;5036375;28;20059;-60
2021/11/21 09:48:53;;;;;;;79.05;14.63;;;7.40;93.30;;;;;;5056338;28;20119;-60
2021/11/21 09:51:20;;;;;;;57.47;13.05;;;7.50;93.30;;;;;;5042241;28;20029;-61
2021/11/21 09:53:47;;;;;;;76.22;13.75;;;7.50;93.30;;;;;;5040548;28;20036;-61
2021/11/21 09:56:13;;;;;;;93.13;13.82;;;7.50;93.30;;;;;;5061466;28;20027;-61
2021/11/21 09:58:39;;;;;;;117.70;16.67;;;7.60;93.30;;;;;;5026575;28;20036;-60
2021/11/21 10:01:05;;;;;;;74.15;13.52;;;7.60;93.30;;;;;;5041163;28;20116;-60
2021/11/21 10:03:31;;;;;;;62.53;13.02;;;7.60;93.30;;;;;;5024213;28;20071;-60
2021/11/21 10:06:05;;;;;;;65.45;13.55;;;7.70;93.40;;;;;;5027967;28;20447;-60
2021/11/21 10:08:31;;;;;;;83.53;13.60;;;7.70;93.50;;;;;;5045030;28;20653;-60
2021/11/21 10:11:08;;;;;;;83.85;12.50;;;7.70;93.40;;;;;;5023824;28;20114;-60
2021/11/21 10:13:42;;;;;;;76.80;15.32;;;7.70;93.40;;;;;;5060095;28;20514;-60
2021/11/21 10:16:36;;;;;;;68.22;13.73;;;7.80;93.50;;;;;;5060391;28;20039;-61
2021/11/21 10:19:03;;;;;;;99.43;14.82;;;7.80;93.40;;;;;;5039650;28;20044;-61
2021/11/21 10:21:34;;;;;;;97.15;15.00;;;7.80;93.40;;;;;;5052591;28;20408;-61
2021/11/21 10:24:13;;;;;;;101.07;15.63;;;7.80;93.50;;;;;;5039508;28;20490;-61
2021/11/21 10:26:38;;;;;;;88.80;13.27;;;7.80;93.50;;;;;;5022352;28;20124;-61
2021/11/21 10:29:30;;;;;;;135.40;17.50;;;7.80;93.40;;;;;;5039455;28;20052;-60
2021/11/21 10:31:55;;;;;;;121.70;18.02;;;7.80;93.50;;;;;;5036887;28;20124;-61
2021/11/21 10:34:21;;;;;;;115.22;15.85;;;7.80;93.60;;;;;;5037242;28;20123;-60
2021/11/21 10:36:46;;;;;;;115.88;16.33;;;7.90;93.70;;;;;;5022126;28;20025;-60
2021/11/21 10:39:14;;;;;;;106.45;15.82;;;7.90;93.70;;;;;;5021677;28;20671;-60
2021/11/21 10:41:41;;;;;;;85.32;15.18;;;7.90;93.70;;;;;;5057637;28;20039;-61
2021/11/21 10:44:10;;;;;;;109.03;16.38;;;7.90;93.60;;;;;;5024461;28;20028;-60
2021/11/21 10:46:43;;;;;;;129.15;19.25;;;7.90;93.60;;;;;;5039916;28;20037;-61
2021/11/21 10:49:26;;;;;;;125.57;17.95;;;7.90;93.70;;;;;;5040047;28;20123;-61
2021/11/21 10:51:58;;;;;;;116.28;18.08;;;7.90;93.80;;;;;;5028157;28;20379;-60
2021/11/21 10:54:31;;;;;;;130.20;17.58;;;7.90;93.70;;;;;;5055734;28;20055;-61
2021/11/21 10:56:58;;;;;;;109.00;17.15;;;7.90;93.70;;;;;;5040409;28;20068;-60
2021/11/21 10:59:51;;;;;;;95.15;15.38;;;7.90;93.60;;;;;;5024446;28;20073;-60
2021/11/21 11:02:53;;;;;;;132.05;18.38;;;8.00;93.60;;;;;;5039568;28;20047;-60
2021/11/21 11:05:22;;;;;;;129.68;17.80;;;8.00;94.10;;;;;;4976229;28;20097;-61
2021/11/21 11:07:47;;;;;;;123.50;16.83;;;7.90;93.70;;;;;;5013340;28;20125;-60
2021/11/21 11:10:33;;;;;;;126.30;17.92;;;8.00;93.70;;;;;;5044418;28;20555;-60
2021/11/21 11:13:02;;;;;;;146.77;18.75;;;8.00;93.70;;;;;;5042252;28;20495;-60
2021/11/21 11:15:28;;;;;;;106.35;17.23;;;8.00;93.80;;;;;;5029061;28;20072;-60
2021/11/21 11:17:53;;;;;;;162.55;19.02;;;8.00;93.80;;;;;;5046065;28;20132;-60
2021/11/21 11:20:20;;;;;;;137.15;18.48;;;8.00;93.80;;;;;;5062797;28;20127;-61
2021/11/21 11:22:46;;;;;;;122.68;16.75;;;8.00;93.80;;;;;;5045469;28;20040;-61
2021/11/21 11:25:24;;;;;;;133.73;17.50;;;8.00;93.90;;;;;;5025536;28;20052;-61
2021/11/21 11:27:56;;;;;;;161.63;20.05;;;8.00;93.80;;;;;;5044159;28;20031;-61
2021/11/21 11:30:33;;;;;;;159.32;21.25;;;8.10;93.90;;;;;;5041948;28;20033;-60
2021/11/21 11:33:08;;;;;;;126.13;18.45;;;8.10;93.90;;;;;;5041447;28;20040;-61
2021/11/21 11:35:34;;;;;;;128.50;19.38;;;8.10;93.90;;;;;;5048881;28;20024;-61
2021/11/21 11:38:18;;;;;;;147.85;18.73;;;8.10;93.90;;;;;;5024771;28;20028;-60
2021/11/21 11:40:52;;;;;;;144.38;19.95;;;8.10;93.90;;;;;;5045475;28;20476;-61
2021/11/21 11:43:23;;;;;;;154.57;22.35;;;8.10;93.90;;;;;;5043909;28;20029;-61
2021/11/21 11:45:54;;;;;;;152.05;19.65;;;8.20;94.00;;;;;;5062191;28;20020;-61
2021/11/21 11:48:40;;;;;;;163.30;22.75;;;8.20;94.10;;;;;;5026669;28;20451;-61
2021/11/21 11:51:35;;;;;;;129.50;18.67;;;8.20;94.20;;;;;;5028732;28;20063;-63
2021/11/21 11:54:02;;;;;;;141.93;22.20;;;8.20;94.10;;;;;;5045904;28;20029;-61
2021/11/21 11:56:46;;;;;;;162.95;21.77;;;8.20;94.10;;;;;;5025689;28;20037;-60
2021/11/21 11:59:33;;;;;;;172.52;21.23;;;8.30;94.10;;;;;;5041571;28;20115;-60
2021/11/21 12:02:28;;;;;;;164.63;20.83;;;8.30;94.10;;;;;;5045981;28;20025;-60
2021/11/21 12:04:55;;;;;;;124.32;19.63;;;8.30;94.20;;;;;;5042097;28;20040;-59
2021/11/21 12:07:23;;;;;;;140.13;22.45;;;8.30;94.10;;;;;;5058638;28;20109;-60
2021/11/21 12:10:00;;;;;;;174.55;22.30;;;8.30;94.20;;;;;;5025182;28;20556;-60
2021/11/21 12:12:59;;;;;;;115.07;19.90;;;8.30;94.20;;;;;;5030187;28;20089;-64
2021/11/21 12:15:29;;;;;;;142.18;21.10;;;8.30;94.20;;;;;;5061432;28;20023;-60
2021/11/21 12:17:56;;;;;;;162.60;19.17;;;8.30;94.20;;;;;;5041360;28;20112;-60
2021/11/21 12:20:51;;;;;;;143.18;21.88;;;8.30;94.20;;;;;;5027023;28;20064;-60
2021/11/21 12:23:41;;;;;;;149.43;20.63;;;8.40;94.20;;;;;;5044905;28;20032;-60
2021/11/21 12:26:40;;;;;;;183.43;21.35;;;8.40;94.20;;;;;;5062438;28;20617;-61
2021/11/21 12:29:15;;;;;;;136.93;18.92;;;8.40;94.20;;;;;;5000101;28;20416;-60
2021/11/21 12:31:42;;;;;;;130.05;20.48;;;8.40;94.20;;;;;;5059402;28;20052;-60
2021/11/21 12:34:27;;;;;;;140.10;20.55;;;8.40;94.40;;;;;;5039236;28;20517;-59
2021/11/21 12:37:14;;;;;;;186.63;23.67;;;8.40;94.40;;;;;;5059844;28;20028;-60
2021/11/21 12:39:42;;;;;;;144.05;20.08;;;8.50;94.40;;;;;;5060004;28;20238;-60